createdAt,value
2018-07-04T00:00:38.228Z,7.97
2018-07-04T00:03:17.964Z,8.77
2018-07-04T00:05:57.541Z,9.30
2018-07-04T00:08:37.098Z,8.20
2018-07-04T00:11:16.852Z,8.20
2018-07-04T00:13:56.551Z,9.03
2018-07-04T00:16:36.304Z,7.00
2018-07-04T00:19:16.113Z,8.20
2018-07-04T00:21:55.738Z,7.50
2018-07-04T00:24:35.332Z,7.50
2018-07-04T00:27:14.936Z,8.50
2018-07-04T00:29:54.626Z,9.47
2018-07-04T00:32:34.421Z,7.50
2018-07-04T00:35:13.901Z,8.23
2018-07-04T00:37:53.660Z,7.57
2018-07-04T00:40:33.407Z,9.90
2018-07-04T00:43:12.933Z,7.80
2018-07-04T00:45:52.410Z,7.60
2018-07-04T00:48:32.200Z,7.90
2018-07-04T00:51:11.731Z,7.93
2018-07-04T00:53:51.387Z,7.40
2018-07-04T00:56:31.218Z,9.00
2018-07-04T00:59:10.889Z,7.77
2018-07-04T01:01:50.604Z,8.60
2018-07-04T01:04:30.321Z,7.80
2018-07-04T01:07:10.065Z,7.80
2018-07-04T01:09:49.772Z,7.93
2018-07-04T01:12:29.530Z,12.60
2018-07-04T01:15:09.110Z,7.93
2018-07-04T01:17:48.696Z,7.77
2018-07-04T01:20:32.567Z,8.20
2018-07-04T01:23:12.341Z,11.33
2018-07-04T01:25:52.013Z,7.43
2018-07-04T01:28:37.195Z,7.00
2018-07-04T01:31:16.870Z,7.77
2018-07-04T01:33:56.457Z,7.67
2018-07-04T01:36:36.093Z,7.80
2018-07-04T01:39:15.716Z,7.00
2018-07-04T01:41:55.345Z,7.43
2018-07-04T01:44:35.037Z,8.20
2018-07-04T01:47:14.469Z,7.83
2018-07-04T01:49:54.032Z,8.40
2018-07-04T01:52:33.548Z,7.20
2018-07-04T01:55:13.020Z,7.90
2018-07-04T01:57:52.617Z,8.87
2018-07-04T02:00:32.241Z,14.57
2018-07-04T02:03:11.925Z,7.73
2018-07-04T02:05:51.350Z,7.60
2018-07-04T02:08:30.949Z,10.57
2018-07-04T02:11:10.528Z,11.53
2018-07-04T02:13:50.125Z,9.17
2018-07-04T02:16:29.747Z,9.33
2018-07-04T02:19:09.501Z,8.53
2018-07-04T02:21:48.975Z,11.17
2018-07-04T02:24:28.594Z,8.27
2018-07-04T02:27:08.160Z,8.03
2018-07-04T02:29:47.664Z,8.23
2018-07-04T02:32:27.280Z,8.47
2018-07-04T02:35:06.909Z,9.30
2018-07-04T02:37:46.592Z,9.20
2018-07-04T02:40:26.104Z,7.80
2018-07-04T02:43:05.780Z,7.73
2018-07-04T02:45:45.457Z,10.07
2018-07-04T02:48:25.185Z,8.60
2018-07-04T02:51:04.893Z,7.73
2018-07-04T02:53:44.508Z,8.10
2018-07-04T02:56:24.168Z,8.67
2018-07-04T02:59:03.911Z,9.33
2018-07-04T03:01:43.625Z,7.70
2018-07-04T03:04:23.420Z,8.43
2018-07-04T03:07:03.008Z,9.30
2018-07-04T03:09:42.666Z,9.50
2018-07-04T03:12:22.301Z,8.30
2018-07-04T03:15:01.923Z,8.47
2018-07-04T04:39:54.277Z,14.03
2018-07-04T04:42:34.726Z,8.87
2018-07-04T04:48:02.794Z,11.93
2018-07-04T04:50:42.437Z,9.03
2018-07-04T04:53:22.063Z,12.03
2018-07-04T04:56:11.449Z,9.47
2018-07-04T05:04:40.020Z,9.00
2018-07-04T05:07:23.481Z,9.47
2018-07-04T05:10:03.249Z,9.40
2018-07-04T05:12:42.866Z,8.97
2018-07-04T05:15:27.481Z,9.17
2018-07-04T05:18:07.306Z,9.33
2018-07-04T05:21:22.393Z,9.90
2018-07-04T05:24:02.538Z,9.33
2018-07-04T05:26:44.313Z,9.20
2018-07-04T05:29:25.301Z,9.63
2018-07-04T05:32:10.801Z,9.83
2018-07-04T05:34:56.879Z,8.47
2018-07-04T05:37:41.001Z,9.50
2018-07-04T05:40:22.007Z,8.83
2018-07-04T05:43:29.066Z,10.60
2018-07-04T05:46:08.855Z,10.30
2018-07-04T05:48:48.502Z,9.63
2018-07-04T05:51:29.226Z,12.80
2018-07-04T07:36:28.236Z,10.63
2018-07-04T07:39:07.778Z,9.60
2018-07-04T07:41:47.305Z,12.80
2018-07-04T07:44:26.993Z,12.77
2018-07-04T07:47:06.645Z,11.33
2018-07-04T07:49:46.242Z,10.40
2018-07-04T07:52:25.929Z,8.60
2018-07-04T07:55:05.572Z,10.97
2018-07-04T07:57:45.294Z,9.27
2018-07-04T08:00:25.001Z,10.00
2018-07-04T08:03:04.809Z,8.63
2018-07-04T08:05:44.576Z,9.27
2018-07-04T08:08:24.201Z,9.50
2018-07-04T08:11:03.806Z,10.07
2018-07-04T08:13:43.458Z,8.23
2018-07-04T08:16:23.073Z,9.20
2018-07-04T08:19:02.753Z,9.07
2018-07-04T08:21:42.300Z,10.17
2018-07-04T08:24:21.869Z,11.73
2018-07-04T08:27:01.544Z,8.97
2018-07-04T08:29:41.188Z,9.27
2018-07-04T08:32:20.844Z,9.90
2018-07-04T08:35:00.355Z,8.87
2018-07-04T08:37:39.961Z,9.00
2018-07-04T08:40:19.519Z,9.27
2018-07-04T08:42:59.176Z,9.17
2018-07-04T08:45:38.718Z,10.13
2018-07-04T08:48:18.313Z,9.10
2018-07-04T08:50:58.005Z,9.77
2018-07-04T08:53:37.532Z,8.67
2018-07-04T08:56:11.210Z,8.47
2018-07-04T08:58:50.957Z,8.87
2018-07-04T09:01:30.658Z,9.17
2018-07-04T09:04:10.309Z,8.47
2018-07-04T09:06:50.064Z,9.00
2018-07-04T09:09:29.749Z,7.70
2018-07-04T09:12:09.309Z,8.83
2018-07-04T09:14:48.724Z,8.70
2018-07-04T09:17:28.339Z,8.10
2018-07-04T09:20:07.881Z,8.70
2018-07-04T09:22:47.684Z,8.93
2018-07-04T09:25:27.396Z,8.27
2018-07-04T09:28:07.125Z,7.70
2018-07-04T09:30:46.738Z,11.13
2018-07-04T09:33:26.357Z,9.50
2018-07-04T09:36:05.904Z,15.57
2018-07-04T09:38:45.557Z,8.77
2018-07-04T09:41:25.156Z,7.57
2018-07-04T09:44:04.734Z,7.60
2018-07-04T09:46:44.349Z,7.00
2018-07-04T09:49:23.978Z,8.17
2018-07-04T09:52:03.700Z,7.13
2018-07-04T09:54:43.325Z,9.30
2018-07-04T09:57:23.085Z,6.63
2018-07-04T10:00:02.726Z,7.43
2018-07-04T10:02:42.400Z,7.37
2018-07-04T10:05:22.165Z,9.23
2018-07-04T10:08:01.933Z,7.47
2018-07-04T10:10:41.557Z,7.70
2018-07-04T10:13:21.322Z,7.10
2018-07-04T10:16:00.971Z,7.63
2018-07-04T10:18:40.498Z,7.77
2018-07-04T10:21:20.214Z,7.70
2018-07-04T10:23:59.853Z,7.37
2018-07-04T10:26:33.479Z,7.40
2018-07-04T10:29:13.000Z,7.20
2018-07-04T10:31:52.647Z,6.97
2018-07-04T10:34:32.260Z,7.53
2018-07-04T10:37:12.032Z,6.67
2018-07-04T10:39:51.772Z,7.03
2018-07-04T10:42:31.304Z,6.10
2018-07-04T10:45:11.096Z,6.90
2018-07-04T10:47:50.844Z,5.30
2018-07-04T10:50:30.720Z,5.87
2018-07-04T10:53:10.163Z,5.90
2018-07-04T10:55:49.922Z,5.90
2018-07-04T10:58:29.399Z,5.20
2018-07-04T11:01:09.031Z,5.30
2018-07-04T11:03:48.581Z,5.07
2018-07-04T11:06:28.182Z,5.03
2018-07-04T11:09:07.841Z,4.53
2018-07-04T11:11:47.332Z,7.87
2018-07-04T11:14:27.072Z,4.83
2018-07-04T11:17:06.846Z,4.73
2018-07-04T11:19:46.312Z,4.00
2018-07-04T11:22:25.909Z,4.63
2018-07-04T11:25:05.285Z,4.80
2018-07-04T11:27:39.231Z,5.20
2018-07-04T11:30:18.810Z,4.07
2018-07-04T11:32:58.569Z,4.50
2018-07-04T11:35:38.024Z,4.70
2018-07-04T11:38:17.764Z,4.80
2018-07-04T11:40:57.382Z,4.37
2018-07-04T11:43:37.134Z,4.27
2018-07-04T11:46:04.373Z,4.70
2018-07-04T11:48:31.607Z,4.57
2018-07-04T11:50:58.847Z,4.27
2018-07-04T11:53:26.106Z,6.00
2018-07-04T11:55:53.332Z,4.77
2018-07-04T11:58:20.579Z,5.50
2018-07-04T12:00:47.844Z,6.03
2018-07-04T12:03:20.346Z,3.83
2018-07-04T12:06:00.142Z,5.33
2018-07-04T12:08:27.397Z,4.03
2018-07-04T12:10:55.175Z,4.10
2018-07-04T12:13:23.693Z,4.20
2018-07-04T12:15:51.570Z,4.60
2018-07-04T12:18:18.889Z,5.27
2018-07-04T12:20:46.345Z,5.37
2018-07-04T12:23:14.267Z,6.93
2018-07-04T12:25:43.251Z,5.27
2018-07-04T12:28:10.492Z,5.00
2018-07-04T12:30:37.858Z,4.80
2018-07-04T12:33:05.183Z,5.13
2018-07-04T12:35:32.513Z,4.40
2018-07-04T12:37:59.783Z,7.83
2018-07-04T12:40:27.013Z,6.83
2018-07-04T12:42:54.236Z,5.30
2018-07-04T12:45:21.477Z,6.90
2018-07-04T12:47:48.698Z,7.30
2018-07-04T12:50:28.672Z,6.23
2018-07-04T12:52:55.939Z,7.63
2018-07-04T12:55:38.922Z,8.67
2018-07-04T12:58:19.805Z,10.33
2018-07-04T13:00:59.513Z,8.60
2018-07-04T13:03:39.057Z,10.33
2018-07-04T13:06:18.809Z,9.00
2018-07-04T13:08:58.452Z,9.87
2018-07-04T13:11:38.159Z,7.97
2018-07-04T13:14:17.853Z,7.57
2018-07-04T13:16:57.417Z,6.87
2018-07-04T13:19:37.057Z,7.40
2018-07-04T13:22:16.674Z,8.20
2018-07-04T13:24:56.529Z,8.57
2018-07-04T13:27:36.118Z,9.57
2018-07-04T13:30:09.515Z,8.33
2018-07-04T13:32:48.999Z,6.90
2018-07-04T13:35:28.905Z,8.77
2018-07-04T13:38:08.413Z,5.97
2018-07-04T13:40:47.953Z,5.53
2018-07-04T13:43:27.658Z,6.00
2018-07-04T13:46:07.354Z,5.50
2018-07-04T13:48:47.147Z,5.53
2018-07-04T13:51:26.808Z,5.43
2018-07-04T13:54:06.294Z,6.50
2018-07-04T13:56:45.997Z,6.50
2018-07-04T13:59:25.699Z,5.70
2018-07-04T14:02:05.510Z,7.03
2018-07-04T14:04:45.176Z,5.17
2018-07-04T14:07:24.918Z,5.93
2018-07-04T14:10:04.471Z,4.93
2018-07-04T14:12:44.088Z,4.67
2018-07-04T14:15:23.817Z,5.40
2018-07-04T14:18:03.534Z,5.23
2018-07-04T14:20:43.437Z,5.13
2018-07-04T14:23:23.207Z,5.90
2018-07-04T14:26:02.900Z,4.90
2018-07-04T14:28:42.386Z,4.93
2018-07-04T14:31:22.081Z,6.67
2018-07-04T14:34:01.659Z,6.17
2018-07-04T14:36:41.270Z,5.67
2018-07-04T14:39:20.913Z,5.53
2018-07-04T14:42:00.553Z,5.53
2018-07-04T14:44:40.208Z,9.97
2018-07-04T14:47:19.901Z,8.63
2018-07-04T14:49:59.540Z,10.50
2018-07-04T14:52:39.740Z,9.43
2018-07-04T14:55:32.120Z,6.03
2018-07-04T14:58:22.406Z,9.03
2018-07-04T15:01:02.150Z,5.00
2018-07-04T15:03:41.838Z,4.43
2018-07-04T15:06:21.370Z,4.67
2018-07-04T15:09:01.008Z,6.63
2018-07-04T15:11:43.812Z,4.30
2018-07-04T15:14:37.206Z,4.10
2018-07-04T15:17:16.891Z,3.93
2018-07-04T15:22:47.387Z,3.73
2018-07-04T15:25:27.885Z,4.80
2018-07-04T15:28:07.611Z,5.20
2018-07-04T15:30:47.409Z,4.90
2018-07-04T15:33:27.202Z,4.00
2018-07-04T15:36:06.875Z,4.47
2018-07-04T15:38:46.533Z,5.97
2018-07-04T15:41:26.258Z,3.63
2018-07-04T15:44:05.769Z,4.17
2018-07-04T15:46:45.440Z,4.43
2018-07-04T15:49:25.279Z,5.17
2018-07-04T15:52:04.886Z,5.00
2018-07-04T15:54:44.463Z,4.37
2018-07-04T15:57:24.070Z,4.87
2018-07-04T15:59:57.917Z,5.07
2018-07-04T16:02:37.632Z,4.63
2018-07-04T16:05:21.380Z,5.10
2018-07-04T16:08:01.199Z,4.20
2018-07-04T16:10:44.291Z,4.30
2018-07-04T16:13:23.859Z,5.30
2018-07-04T16:16:00.843Z,3.90
2018-07-04T16:21:34.474Z,4.40
2018-07-04T16:24:14.181Z,4.40
2018-07-04T16:26:53.959Z,5.67
2018-07-04T16:29:33.838Z,9.03
2018-07-04T16:32:13.630Z,5.90
2018-07-04T16:34:53.168Z,4.97
2018-07-04T16:37:32.673Z,5.47
2018-07-04T16:40:12.282Z,4.17
2018-07-04T16:42:51.941Z,4.50
2018-07-04T16:45:31.669Z,4.37
2018-07-04T16:48:11.282Z,4.67
2018-07-04T16:50:50.852Z,5.03
2018-07-04T16:53:30.493Z,4.03
2018-07-04T16:56:10.074Z,4.40
2018-07-04T16:58:49.687Z,4.40
2018-07-04T17:01:29.165Z,3.97
2018-07-04T17:04:08.616Z,5.37
2018-07-04T17:06:48.244Z,7.43
2018-07-04T17:09:27.969Z,4.37
2018-07-04T17:12:07.633Z,4.70
2018-07-04T17:14:47.257Z,4.40
2018-07-04T17:17:28.581Z,5.30
2018-07-04T17:20:08.131Z,6.60
2018-07-04T17:22:47.670Z,5.43
2018-07-04T17:25:27.242Z,4.77
2018-07-04T17:28:06.706Z,4.90
2018-07-04T17:30:46.356Z,4.50
2018-07-04T17:33:25.977Z,4.33
2018-07-04T17:36:06.345Z,5.87
2018-07-04T17:38:46.035Z,5.90
2018-07-04T17:41:25.802Z,4.83
2018-07-04T17:44:05.342Z,5.10
2018-07-04T17:46:44.990Z,7.30
2018-07-04T17:49:24.492Z,4.87
2018-07-04T17:52:04.159Z,5.03
2018-07-04T17:54:43.806Z,5.83
2018-07-04T17:57:23.413Z,4.90
2018-07-04T18:00:03.000Z,7.53
2018-07-04T18:02:42.579Z,6.47
2018-07-04T18:05:22.068Z,4.60
2018-07-04T18:08:01.674Z,4.70
2018-07-04T18:10:41.143Z,4.77
2018-07-04T18:13:14.726Z,5.03
2018-07-04T18:15:54.341Z,5.10
2018-07-04T18:18:35.669Z,5.07
2018-07-04T18:21:20.642Z,5.23
2018-07-04T18:24:11.135Z,5.20
2018-07-04T18:32:46.065Z,6.43
2018-07-04T18:48:01.126Z,7.50
2018-07-04T18:50:45.305Z,5.93
2018-07-04T18:53:29.541Z,4.90
2018-07-04T19:05:35.747Z,6.33
2018-07-04T19:08:15.724Z,10.53
2018-07-04T19:10:55.484Z,7.10
2018-07-04T19:13:35.415Z,6.07
2018-07-04T19:16:21.577Z,6.73
2018-07-04T19:19:01.659Z,5.83
2018-07-04T19:21:41.587Z,6.03
2018-07-04T19:24:22.636Z,6.80
2018-07-04T19:27:20.449Z,5.47
2018-07-04T19:35:58.213Z,5.10
2018-07-04T19:38:41.168Z,6.63
2018-07-04T19:41:21.028Z,4.83
2018-07-04T19:44:06.086Z,8.00
2018-07-04T19:47:36.055Z,5.30
2018-07-04T19:50:19.619Z,6.60
2018-07-04T19:53:07.054Z,6.63
2018-07-04T20:15:39.460Z,5.40
2018-07-04T20:18:19.903Z,5.50
2018-07-04T20:21:01.454Z,6.90
2018-07-04T20:23:41.778Z,5.03
2018-07-04T20:26:21.960Z,5.93
2018-07-04T20:29:01.666Z,9.20
2018-07-04T20:31:41.396Z,5.80
2018-07-04T20:34:20.972Z,6.50
2018-07-04T20:37:00.673Z,6.07
2018-07-04T20:39:40.489Z,5.93
2018-07-04T20:42:20.387Z,6.03
2018-07-04T20:44:59.979Z,6.00
2018-07-04T20:47:39.638Z,6.07
2018-07-04T20:50:19.307Z,6.87
2018-07-04T20:52:58.944Z,5.93
2018-07-04T20:55:38.924Z,6.90
2018-07-04T20:58:18.578Z,6.20
2018-07-04T21:00:58.341Z,6.03
2018-07-04T21:03:37.936Z,6.97
2018-07-04T21:06:17.589Z,7.47
2018-07-04T21:08:57.406Z,6.33
2018-07-04T21:11:37.015Z,6.10
2018-07-04T21:14:17.073Z,6.17
2018-07-04T21:16:57.117Z,5.73
2018-07-04T21:19:36.892Z,5.90
2018-07-04T21:22:16.533Z,6.13
